sensor_id;sensor_type;location;lat;lon;timestamp;P1;durP1;ratioP1;P2;durP2;ratioP2
42144;SDS011;27813;43.516;11.890;2023-09-12T04:39:28;7.50;;;6.15;;
42144;SDS011;27813;43.516;11.890;2023-09-12T04:43:34;11.18;;;6.20;;
42144;SDS011;27813;43.516;11.890;2023-09-12T04:47:38;9.00;;;6.25;;
42144;SDS011;27813;43.516;11.890;2023-09-12T04:51:43;7.32;;;5.90;;
42144;SDS011;27813;43.516;11.890;2023-09-12T04:55:47;9.40;;;6.53;;
42144;SDS011;27813;43.516;11.890;2023-09-12T04:59:52;7.78;;;6.28;;
42144;SDS011;27813;43.516;11.890;2023-09-12T05:03:56;7.88;;;5.90;;
42144;SDS011;27813;43.516;11.890;2023-09-12T05:08:00;8.20;;;5.95;;
42144;SDS011;27813;43.516;11.890;2023-09-12T05:12:05;8.55;;;6.82;;
42144;SDS011;27813;43.516;11.890;2023-09-12T05:16:10;7.78;;;6.30;;
42144;SDS011;27813;43.516;11.890;2023-09-12T05:20:15;8.40;;;6.53;;
42144;SDS011;27813;43.516;11.890;2023-09-12T05:24:19;10.38;;;6.88;;
42144;SDS011;27813;43.516;11.890;2023-09-12T05:28:24;10.93;;;6.90;;
42144;SDS011;27813;43.516;11.890;2023-09-12T05:32:28;7.55;;;6.57;;
42144;SDS011;27813;43.516;11.890;2023-09-12T05:36:33;10.68;;;7.22;;
42144;SDS011;27813;43.516;11.890;2023-09-12T05:40:38;8.52;;;7.25;;
42144;SDS011;27813;43.516;11.890;2023-09-12T05:44:43;7.07;;;5.68;;
42144;SDS011;27813;43.516;11.890;2023-09-12T05:48:47;7.00;;;6.22;;
42144;SDS011;27813;43.516;11.890;2023-09-12T05:58:11;9.55;;;5.88;;
42144;SDS011;27813;43.516;11.890;2023-09-12T06:07:56;8.20;;;5.50;;
42144;SDS011;27813;43.516;11.890;2023-09-12T06:12:01;7.95;;;5.85;;
42144;SDS011;27813;43.516;11.890;2023-09-12T06:16:05;5.43;;;4.80;;
42144;SDS011;27813;43.516;11.890;2023-09-12T06:20:09;5.93;;;5.07;;
42144;SDS011;27813;43.516;11.890;2023-09-12T06:24:18;8.27;;;5.50;;
42144;SDS011;27813;43.516;11.890;2023-09-12T06:28:26;6.05;;;5.22;;
42144;SDS011;27813;43.516;11.890;2023-09-12T06:32:31;7.70;;;5.43;;
42144;SDS011;27813;43.516;11.890;2023-09-12T06:36:35;6.28;;;5.63;;
42144;SDS011;27813;43.516;11.890;2023-09-12T06:40:44;5.50;;;5.00;;
42144;SDS011;27813;43.516;11.890;2023-09-12T06:44:50;5.45;;;4.32;;
42144;SDS011;27813;43.516;11.890;2023-09-12T06:48:55;6.43;;;5.18;;
42144;SDS011;27813;43.516;11.890;2023-09-12T06:53:00;6.40;;;4.70;;
42144;SDS011;27813;43.516;11.890;2023-09-12T06:57:04;5.30;;;4.28;;
42144;SDS011;27813;43.516;11.890;2023-09-12T07:01:08;10.85;;;5.07;;
42144;SDS011;27813;43.516;11.890;2023-09-12T07:05:12;8.07;;;5.97;;
42144;SDS011;27813;43.516;11.890;2023-09-12T07:09:17;6.18;;;4.88;;
42144;SDS011;27813;43.516;11.890;2023-09-12T07:13:23;7.25;;;5.13;;
42144;SDS011;27813;43.516;11.890;2023-09-12T07:17:28;7.00;;;5.35;;
42144;SDS011;27813;43.516;11.890;2023-09-12T07:21:32;6.60;;;4.90;;
42144;SDS011;27813;43.516;11.890;2023-09-12T07:25:40;6.22;;;4.95;;
42144;SDS011;27813;43.516;11.890;2023-09-12T07:29:45;5.55;;;5.00;;
42144;SDS011;27813;43.516;11.890;2023-09-12T07:33:49;7.15;;;5.03;;
42144;SDS011;27813;43.516;11.890;2023-09-12T07:37:53;8.68;;;4.85;;
42144;SDS011;27813;43.516;11.890;2023-09-12T07:41:58;6.22;;;4.45;;
42144;SDS011;27813;43.516;11.890;2023-09-12T07:46:02;5.18;;;4.65;;
42144;SDS011;27813;43.516;11.890;2023-09-12T07:50:07;6.32;;;4.28;;
42144;SDS011;27813;43.516;11.890;2023-09-12T07:54:11;5.78;;;4.47;;
42144;SDS011;27813;43.516;11.890;2023-09-12T07:58:16;4.53;;;4.10;;
42144;SDS011;27813;43.516;11.890;2023-09-12T08:02:21;6.60;;;4.78;;
42144;SDS011;27813;43.516;11.890;2023-09-12T08:06:26;5.70;;;4.78;;
42144;SDS011;27813;43.516;11.890;2023-09-12T08:10:30;4.32;;;3.85;;
42144;SDS011;27813;43.516;11.890;2023-09-12T08:14:35;7.30;;;4.60;;
42144;SDS011;27813;43.516;11.890;2023-09-12T08:18:39;7.15;;;4.35;;
42144;SDS011;27813;43.516;11.890;2023-09-12T08:22:44;5.53;;;4.25;;
42144;SDS011;27813;43.516;11.890;2023-09-12T08:26:48;6.25;;;4.72;;
42144;SDS011;27813;43.516;11.890;2023-09-12T08:30:53;7.97;;;4.72;;
42144;SDS011;27813;43.516;11.890;2023-09-12T08:34:57;4.85;;;3.80;;
42144;SDS011;27813;43.516;11.890;2023-09-12T08:39:02;5.35;;;4.05;;
42144;SDS011;27813;43.516;11.890;2023-09-12T08:43:07;7.03;;;4.32;;
42144;SDS011;27813;43.516;11.890;2023-09-12T08:47:12;5.18;;;4.18;;
42144;SDS011;27813;43.516;11.890;2023-09-12T08:51:19;6.05;;;4.45;;
42144;SDS011;27813;43.516;11.890;2023-09-12T08:55:27;7.72;;;4.88;;
42144;SDS011;27813;43.516;11.890;2023-09-12T08:59:33;4.95;;;3.80;;
42144;SDS011;27813;43.516;11.890;2023-09-12T09:03:38;5.70;;;3.85;;
42144;SDS011;27813;43.516;11.890;2023-09-12T09:07:48;4.47;;;3.85;;
42144;SDS011;27813;43.516;11.890;2023-09-12T09:11:52;4.40;;;3.67;;
42144;SDS011;27813;43.516;11.890;2023-09-12T09:16:12;5.07;;;4.07;;
42144;SDS011;27813;43.516;11.890;2023-09-12T09:20:30;4.13;;;3.72;;
42144;SDS011;27813;43.516;11.890;2023-09-12T09:24:39;6.70;;;4.10;;
42144;SDS011;27813;43.516;11.890;2023-09-12T09:28:43;8.45;;;4.45;;
42144;SDS011;27813;43.516;11.890;2023-09-12T09:32:48;5.63;;;3.97;;
42144;SDS011;27813;43.516;11.890;2023-09-12T09:36:58;5.45;;;3.47;;
42144;SDS011;27813;43.516;11.890;2023-09-12T09:41:08;6.22;;;3.90;;
42144;SDS011;27813;43.516;11.890;2023-09-12T09:45:13;7.05;;;3.53;;
42144;SDS011;27813;43.516;11.890;2023-09-12T09:49:19;5.95;;;3.70;;
42144;SDS011;27813;43.516;11.890;2023-09-12T09:53:29;5.78;;;3.55;;
42144;SDS011;27813;43.516;11.890;2023-09-12T09:57:38;6.30;;;3.25;;
42144;SDS011;27813;43.516;11.890;2023-09-12T10:01:43;4.95;;;3.20;;
42144;SDS011;27813;43.516;11.890;2023-09-12T10:05:49;6.03;;;3.83;;
42144;SDS011;27813;43.516;11.890;2023-09-12T10:10:00;4.65;;;3.15;;
42144;SDS011;27813;43.516;11.890;2023-09-12T10:14:07;5.30;;;3.17;;
42144;SDS011;27813;43.516;11.890;2023-09-12T10:18:14;5.20;;;2.97;;
42144;SDS011;27813;43.516;11.890;2023-09-12T10:22:34;3.60;;;3.25;;
42144;SDS011;27813;43.516;11.890;2023-09-12T10:26:54;5.43;;;3.65;;
42144;SDS011;27813;43.516;11.890;2023-09-12T10:31:00;3.80;;;3.22;;
42144;SDS011;27813;43.516;11.890;2023-09-12T10:35:05;4.10;;;3.40;;
42144;SDS011;27813;43.516;11.890;2023-09-12T10:39:12;3.50;;;2.97;;
42144;SDS011;27813;43.516;11.890;2023-09-12T10:43:17;4.60;;;3.53;;
42144;SDS011;27813;43.516;11.890;2023-09-12T10:47:22;3.53;;;3.05;;
42144;SDS011;27813;43.516;11.890;2023-09-12T10:51:27;4.68;;;3.45;;
42144;SDS011;27813;43.516;11.890;2023-09-12T10:55:31;3.42;;;2.88;;
42144;SDS011;27813;43.516;11.890;2023-09-12T10:59:35;5.07;;;3.67;;
42144;SDS011;27813;43.516;11.890;2023-09-12T11:03:40;4.30;;;2.90;;
42144;SDS011;27813;43.516;11.890;2023-09-12T11:07:45;4.10;;;3.25;;
42144;SDS011;27813;43.516;11.890;2023-09-12T11:11:57;4.75;;;3.38;;
42144;SDS011;27813;43.516;11.890;2023-09-12T11:16:12;5.20;;;3.28;;
42144;SDS011;27813;43.516;11.890;2023-09-12T11:20:18;8.52;;;3.70;;
42144;SDS011;27813;43.516;11.890;2023-09-12T11:24:25;5.32;;;4.07;;
42144;SDS011;27813;43.516;11.890;2023-09-12T11:28:30;4.22;;;3.25;;
42144;SDS011;27813;43.516;11.890;2023-09-12T11:32:35;3.85;;;3.45;;
42144;SDS011;27813;43.516;11.890;2023-09-12T11:36:41;4.57;;;3.95;;
42144;SDS011;27813;43.516;11.890;2023-09-12T11:40:45;4.00;;;3.55;;
42144;SDS011;27813;43.516;11.890;2023-09-12T11:44:50;4.97;;;3.83;;
42144;SDS011;27813;43.516;11.890;2023-09-12T11:48:56;4.32;;;3.70;;
42144;SDS011;27813;43.516;11.890;2023-09-12T11:53:04;6.00;;;3.80;;
42144;SDS011;27813;43.516;11.890;2023-09-12T11:57:12;6.38;;;4.07;;
42144;SDS011;27813;43.516;11.890;2023-09-12T12:01:18;5.70;;;4.05;;
42144;SDS011;27813;43.516;11.890;2023-09-12T12:05:22;4.45;;;3.70;;
42144;SDS011;27813;43.516;11.890;2023-09-12T12:09:27;3.97;;;3.58;;
42144;SDS011;27813;43.516;11.890;2023-09-12T12:13:32;12.80;;;4.47;;
42144;SDS011;27813;43.516;11.890;2023-09-12T12:17:37;6.80;;;3.90;;
42144;SDS011;27813;43.516;11.890;2023-09-12T12:21:44;6.35;;;3.45;;
42144;SDS011;27813;43.516;11.890;2023-09-12T12:25:49;4.25;;;3.35;;
42144;SDS011;27813;43.516;11.890;2023-09-12T12:29:53;5.85;;;3.58;;
42144;SDS011;27813;43.516;11.890;2023-09-12T12:33:58;3.65;;;3.30;;
42144;SDS011;27813;43.516;11.890;2023-09-12T12:38:23;4.35;;;2.80;;
42144;SDS011;27813;43.516;11.890;2023-09-12T12:42:32;3.40;;;2.90;;
42144;SDS011;27813;43.516;11.890;2023-09-12T12:46:51;4.30;;;2.85;;
42144;SDS011;27813;43.516;11.890;2023-09-12T12:51:12;3.47;;;2.90;;
42144;SDS011;27813;43.516;11.890;2023-09-12T12:55:32;4.57;;;2.90;;
42144;SDS011;27813;43.516;11.890;2023-09-12T12:59:44;6.05;;;2.90;;
42144;SDS011;27813;43.516;11.890;2023-09-12T13:03:49;3.13;;;2.55;;
42144;SDS011;27813;43.516;11.890;2023-09-12T13:07:54;2.95;;;2.55;;
42144;SDS011;27813;43.516;11.890;2023-09-12T13:11:59;4.93;;;2.92;;
42144;SDS011;27813;43.516;11.890;2023-09-12T13:16:04;3.20;;;2.63;;
42144;SDS011;27813;43.516;11.890;2023-09-12T13:20:09;3.10;;;2.75;;
42144;SDS011;27813;43.516;11.890;2023-09-12T13:24:14;2.90;;;2.60;;
42144;SDS011;27813;43.516;11.890;2023-09-12T13:28:18;3.85;;;2.65;;
42144;SDS011;27813;43.516;11.890;2023-09-12T13:32:22;4.70;;;2.40;;
42144;SDS011;27813;43.516;11.890;2023-09-12T13:36:26;4.05;;;3.17;;
42144;SDS011;27813;43.516;11.890;2023-09-12T13:40:31;3.78;;;2.47;;
42144;SDS011;27813;43.516;11.890;2023-09-12T13:44:35;5.13;;;2.70;;
42144;SDS011;27813;43.516;11.890;2023-09-12T13:48:40;4.57;;;3.05;;
42144;SDS011;27813;43.516;11.890;2023-09-12T13:52:44;4.78;;;2.88;;
42144;SDS011;27813;43.516;11.890;2023-09-12T13:56:49;3.80;;;2.47;;
42144;SDS011;27813;43.516;11.890;2023-09-12T14:00:53;5.18;;;2.90;;
42144;SDS011;27813;43.516;11.890;2023-09-12T14:04:57;3.45;;;2.90;;
42144;SDS011;27813;43.516;11.890;2023-09-12T14:09:15;5.53;;;3.72;;
42144;SDS011;27813;43.516;11.890;2023-09-12T14:13:27;3.83;;;2.95;;
42144;SDS011;27813;43.516;11.890;2023-09-12T14:17:32;4.18;;;2.70;;
42144;SDS011;27813;43.516;11.890;2023-09-12T14:21:38;5.75;;;2.88;;
42144;SDS011;27813;43.516;11.890;2023-09-12T14:25:43;4.40;;;3.15;;
42144;SDS011;27813;43.516;11.890;2023-09-12T14:29:48;3.15;;;2.83;;
42144;SDS011;27813;43.516;11.890;2023-09-12T14:33:54;3.95;;;2.55;;
42144;SDS011;27813;43.516;11.890;2023-09-12T14:37:58;3.47;;;2.70;;
42144;SDS011;27813;43.516;11.890;2023-09-12T14:42:03;5.15;;;3.20;;
42144;SDS011;27813;43.516;11.890;2023-09-12T14:46:11;4.47;;;2.60;;
42144;SDS011;27813;43.516;11.890;2023-09-12T14:50:16;3.40;;;2.35;;
42144;SDS011;27813;43.516;11.890;2023-09-12T14:54:23;3.92;;;3.05;;
42144;SDS011;27813;43.516;11.890;2023-09-12T14:58:27;4.43;;;2.80;;
42144;SDS011;27813;43.516;11.890;2023-09-12T15:02:31;5.95;;;2.95;;
42144;SDS011;27813;43.516;11.890;2023-09-12T15:06:36;3.85;;;2.65;;
42144;SDS011;27813;43.516;11.890;2023-09-12T15:10:40;4.90;;;3.20;;
42144;SDS011;27813;43.516;11.890;2023-09-12T15:14:45;3.70;;;2.60;;
42144;SDS011;27813;43.516;11.890;2023-09-12T15:18:49;4.93;;;2.90;;
42144;SDS011;27813;43.516;11.890;2023-09-12T15:22:55;4.10;;;2.97;;
42144;SDS011;27813;43.516;11.890;2023-09-12T15:26:59;3.67;;;2.90;;
42144;SDS011;27813;43.516;11.890;2023-09-12T15:31:04;5.13;;;2.58;;
42144;SDS011;27813;43.516;11.890;2023-09-12T15:35:08;4.65;;;2.55;;
42144;SDS011;27813;43.516;11.890;2023-09-12T15:39:14;3.35;;;2.80;;
42144;SDS011;27813;43.516;11.890;2023-09-12T15:43:19;6.35;;;3.00;;
42144;SDS011;27813;43.516;11.890;2023-09-12T15:47:27;3.95;;;2.60;;
42144;SDS011;27813;43.516;11.890;2023-09-12T15:51:32;5.53;;;2.88;;
42144;SDS011;27813;43.516;11.890;2023-09-12T15:55:37;4.55;;;2.70;;
42144;SDS011;27813;43.516;11.890;2023-09-12T15:59:41;3.60;;;2.40;;
42144;SDS011;27813;43.516;11.890;2023-09-12T16:03:46;6.70;;;2.90;;
42144;SDS011;27813;43.516;11.890;2023-09-12T16:07:51;3.33;;;2.70;;
42144;SDS011;27813;43.516;11.890;2023-09-12T16:11:55;4.22;;;2.67;;
42144;SDS011;27813;43.516;11.890;2023-09-12T16:15:59;9.18;;;3.50;;
42144;SDS011;27813;43.516;11.890;2023-09-12T16:20:04;2.95;;;2.58;;
42144;SDS011;27813;43.516;11.890;2023-09-12T16:24:10;2.92;;;2.60;;
42144;SDS011;27813;43.516;11.890;2023-09-12T16:28:15;3.60;;;2.88;;
42144;SDS011;27813;43.516;11.890;2023-09-12T16:32:19;8.70;;;3.20;;
42144;SDS011;27813;43.516;11.890;2023-09-12T16:36:23;6.45;;;3.15;;
42144;SDS011;27813;43.516;11.890;2023-09-12T16:40:28;4.38;;;2.78;;
42144;SDS011;27813;43.516;11.890;2023-09-12T16:44:34;3.53;;;2.65;;
42144;SDS011;27813;43.516;11.890;2023-09-12T16:48:39;3.65;;;2.70;;
42144;SDS011;27813;43.516;11.890;2023-09-12T16:52:45;4.63;;;2.67;;
42144;SDS011;27813;43.516;11.890;2023-09-12T16:56:49;3.65;;;2.55;;
42144;SDS011;27813;43.516;11.890;2023-09-12T17:00:56;3.28;;;2.72;;
42144;SDS011;27813;43.516;11.890;2023-09-12T17:05:01;3.50;;;2.22;;
42144;SDS011;27813;43.516;11.890;2023-09-12T17:09:07;4.95;;;2.60;;
42144;SDS011;27813;43.516;11.890;2023-09-12T17:13:12;4.18;;;2.50;;
42144;SDS011;27813;43.516;11.890;2023-09-12T17:17:16;5.32;;;2.72;;
42144;SDS011;27813;43.516;11.890;2023-09-12T17:21:21;4.13;;;2.55;;
42144;SDS011;27813;43.516;11.890;2023-09-12T17:25:25;3.97;;;2.63;;
42144;SDS011;27813;43.516;11.890;2023-09-12T17:29:30;6.75;;;3.20;;
42144;SDS011;27813;43.516;11.890;2023-09-12T17:33:34;4.05;;;2.70;;
42144;SDS011;27813;43.516;11.890;2023-09-12T17:37:38;4.90;;;2.88;;
42144;SDS011;27813;43.516;11.890;2023-09-12T17:41:42;5.25;;;2.70;;
42144;SDS011;27813;43.516;11.890;2023-09-12T17:45:46;10.32;;;3.05;;
42144;SDS011;27813;43.516;11.890;2023-09-12T17:50:10;25.17;;;3.75;;
42144;SDS011;27813;43.516;11.890;2023-09-12T17:54:14;19.33;;;3.60;;
42144;SDS011;27813;43.516;11.890;2023-09-12T17:58:19;10.07;;;3.28;;
42144;SDS011;27813;43.516;11.890;2023-09-12T18:02:23;6.40;;;3.00;;
42144;SDS011;27813;43.516;11.890;2023-09-12T18:06:28;8.50;;;2.75;;
42144;SDS011;27813;43.516;11.890;2023-09-12T18:10:34;4.43;;;2.50;;
42144;SDS011;27813;43.516;11.890;2023-09-12T18:14:38;7.60;;;3.08;;
42144;SDS011;27813;43.516;11.890;2023-09-12T18:18:43;8.68;;;3.22;;
42144;SDS011;27813;43.516;11.890;2023-09-12T18:22:47;8.13;;;2.80;;
42144;SDS011;27813;43.516;11.890;2023-09-12T18:26:51;13.95;;;4.07;;
42144;SDS011;27813;43.516;11.890;2023-09-12T18:30:56;15.48;;;3.60;;
42144;SDS011;27813;43.516;11.890;2023-09-12T18:35:00;5.88;;;2.75;;
42144;SDS011;27813;43.516;11.890;2023-09-12T18:39:07;4.00;;;3.00;;
42144;SDS011;27813;43.516;11.890;2023-09-12T18:43:11;4.07;;;2.70;;
42144;SDS011;27813;43.516;11.890;2023-09-12T18:47:19;3.30;;;2.65;;
42144;SDS011;27813;43.516;11.890;2023-09-12T18:51:23;4.68;;;3.33;;
42144;SDS011;27813;43.516;11.890;2023-09-12T18:55:27;5.93;;;2.97;;
42144;SDS011;27813;43.516;11.890;2023-09-12T18:59:32;4.72;;;3.17;;
42144;SDS011;27813;43.516;11.890;2023-09-12T19:03:36;8.30;;;2.85;;
42144;SDS011;27813;43.516;11.890;2023-09-12T19:07:43;5.63;;;2.90;;
42144;SDS011;27813;43.516;11.890;2023-09-12T19:11:47;4.97;;;3.20;;
42144;SDS011;27813;43.516;11.890;2023-09-12T19:15:52;4.75;;;3.72;;
42144;SDS011;27813;43.516;11.890;2023-09-12T19:19:57;5.55;;;2.88;;
42144;SDS011;27813;43.516;11.890;2023-09-12T19:24:05;7.60;;;3.00;;
42144;SDS011;27813;43.516;11.890;2023-09-12T19:28:09;8.00;;;3.33;;
42144;SDS011;27813;43.516;11.890;2023-09-12T19:32:13;3.83;;;3.13;;
42144;SDS011;27813;43.516;11.890;2023-09-12T19:36:18;4.55;;;3.60;;
42144;SDS011;27813;43.516;11.890;2023-09-12T19:40:28;4.18;;;3.78;;
42144;SDS011;27813;43.516;11.890;2023-09-12T19:45:03;5.30;;;3.88;;
42144;SDS011;27813;43.516;11.890;2023-09-12T19:49:28;5.93;;;3.92;;
42144;SDS011;27813;43.516;11.890;2023-09-12T19:54:04;4.03;;;3.42;;
42144;SDS011;27813;43.516;11.890;2023-09-12T19:58:32;4.88;;;3.60;;
42144;SDS011;27813;43.516;11.890;2023-09-12T20:02:36;5.60;;;3.70;;
42144;SDS011;27813;43.516;11.890;2023-09-12T20:06:41;4.85;;;3.53;;
42144;SDS011;27813;43.516;11.890;2023-09-12T20:10:45;5.45;;;4.07;;
42144;SDS011;27813;43.516;11.890;2023-09-12T20:14:50;7.57;;;3.63;;
42144;SDS011;27813;43.516;11.890;2023-09-12T20:18:55;5.72;;;3.50;;
42144;SDS011;27813;43.516;11.890;2023-09-12T20:22:59;5.22;;;3.50;;
42144;SDS011;27813;43.516;11.890;2023-09-12T20:27:04;8.35;;;3.63;;
42144;SDS011;27813;43.516;11.890;2023-09-12T20:31:10;8.20;;;3.95;;
42144;SDS011;27813;43.516;11.890;2023-09-12T20:35:14;5.25;;;3.85;;
42144;SDS011;27813;43.516;11.890;2023-09-12T20:39:25;4.68;;;4.05;;
42144;SDS011;27813;43.516;11.890;2023-09-12T20:43:32;7.75;;;4.50;;
42144;SDS011;27813;43.516;11.890;2023-09-12T20:47:36;5.38;;;4.43;;
42144;SDS011;27813;43.516;11.890;2023-09-12T20:51:43;6.35;;;4.75;;
42144;SDS011;27813;43.516;11.890;2023-09-12T20:55:49;7.88;;;4.50;;
42144;SDS011;27813;43.516;11.890;2023-09-12T20:59:54;4.93;;;4.40;;
42144;SDS011;27813;43.516;11.890;2023-09-12T21:04:00;5.75;;;4.72;;
42144;SDS011;27813;43.516;11.890;2023-09-12T21:08:15;7.72;;;5.05;;
42144;SDS011;27813;43.516;11.890;2023-09-12T21:12:51;6.95;;;4.70;;
42144;SDS011;27813;43.516;11.890;2023-09-12T21:17:00;5.03;;;4.53;;
42144;SDS011;27813;43.516;11.890;2023-09-12T21:21:58;5.18;;;4.65;;
42144;SDS011;27813;43.516;11.890;2023-09-12T21:26:44;5.50;;;4.88;;
42144;SDS011;27813;43.516;11.890;2023-09-12T21:31:19;5.68;;;4.75;;
42144;SDS011;27813;43.516;11.890;2023-09-12T21:36:24;6.28;;;4.35;;
42144;SDS011;27813;43.516;11.890;2023-09-12T21:40:28;7.30;;;5.20;;
42144;SDS011;27813;43.516;11.890;2023-09-12T21:44:32;5.95;;;4.30;;
42144;SDS011;27813;43.516;11.890;2023-09-12T21:48:37;7.03;;;4.30;;
42144;SDS011;27813;43.516;11.890;2023-09-12T21:52:41;5.78;;;4.63;;
42144;SDS011;27813;43.516;11.890;2023-09-12T21:56:46;4.70;;;4.18;;
42144;SDS011;27813;43.516;11.890;2023-09-12T22:00:50;7.38;;;4.78;;
42144;SDS011;27813;43.516;11.890;2023-09-12T22:04:54;6.35;;;4.65;;
42144;SDS011;27813;43.516;11.890;2023-09-12T22:08:58;7.40;;;4.80;;
42144;SDS011;27813;43.516;11.890;2023-09-12T22:13:04;4.97;;;4.47;;
42144;SDS011;27813;43.516;11.890;2023-09-12T22:17:08;5.05;;;4.30;;
42144;SDS011;27813;43.516;11.890;2023-09-12T22:21:13;5.57;;;4.65;;
42144;SDS011;27813;43.516;11.890;2023-09-12T22:25:19;6.65;;;5.05;;
42144;SDS011;27813;43.516;11.890;2023-09-12T22:29:23;6.85;;;4.80;;
42144;SDS011;27813;43.516;11.890;2023-09-12T22:33:28;5.18;;;4.68;;
42144;SDS011;27813;43.516;11.890;2023-09-12T22:37:33;6.50;;;5.28;;
42144;SDS011;27813;43.516;11.890;2023-09-12T22:41:37;6.68;;;5.63;;
42144;SDS011;27813;43.516;11.890;2023-09-12T22:45:43;7.50;;;5.40;;
42144;SDS011;27813;43.516;11.890;2023-09-12T22:49:49;10.05;;;6.57;;
42144;SDS011;27813;43.516;11.890;2023-09-12T22:53:54;6.07;;;4.88;;
42144;SDS011;27813;43.516;11.890;2023-09-12T22:57:58;8.02;;;5.53;;
42144;SDS011;27813;43.516;11.890;2023-09-12T23:02:03;5.88;;;5.18;;
42144;SDS011;27813;43.516;11.890;2023-09-12T23:06:07;6.55;;;5.35;;
42144;SDS011;27813;43.516;11.890;2023-09-12T23:10:11;6.38;;;5.18;;
42144;SDS011;27813;43.516;11.890;2023-09-12T23:14:16;7.35;;;5.13;;
42144;SDS011;27813;43.516;11.890;2023-09-12T23:18:20;6.15;;;5.13;;
42144;SDS011;27813;43.516;11.890;2023-09-12T23:22:24;6.75;;;4.68;;
42144;SDS011;27813;43.516;11.890;2023-09-12T23:26:29;6.38;;;4.75;;
